Time;durP1;ratioP1;P1;durP2;ratioP2;P2;SDS_P1;SDS_P2;PMS_P1;PMS_P2;Temp;Humidity;BMP_temperature;BMP_pressure;BME280_temperature;BME280_humidity;BME280_pressure;Samples;Min_cycle;Max_cycle;Signal;HPM_P1;HPM_P2
2024/02/12 00:02:28;;;;;;;7.15;6.03;;;7.30;99.90;;;;;;5079449;28;20130;-82
2024/02/12 00:04:54;;;;;;;8.23;6.82;;;7.20;99.90;;;;;;5012224;28;20038;-82
2024/02/12 00:07:20;;;;;;;7.85;5.80;;;7.20;99.90;;;;;;5012023;28;20037;-88
2024/02/12 00:09:47;;;;;;;8.98;6.22;;;7.20;99.90;;;;;;5012404;28;20139;-81
2024/02/12 00:12:13;;;;;;;7.95;6.43;;;7.20;99.90;;;;;;5012126;28;20160;-82
2024/02/12 00:14:39;;;;;;;7.05;6.00;;;7.10;99.90;;;;;;5012249;28;20037;-89
2024/02/12 00:17:05;;;;;;;7.75;6.70;;;7.10;99.90;;;;;;5011984;28;20026;-86
2024/02/12 00:22:20;;;;;;;8.52;6.53;;;7.00;99.90;;;;;;5012154;28;20040;-81
2024/02/12 00:24:45;;;;;;;6.97;6.25;;;7.00;99.90;;;;;;4995406;28;20164;-81
2024/02/12 00:27:11;;;;;;;6.82;5.85;;;7.00;99.90;;;;;;5012207;28;20097;-87
2024/02/12 00:29:37;;;;;;;6.95;5.72;;;6.90;99.90;;;;;;5012094;28;20045;-81
2024/02/12 00:32:03;;;;;;;8.40;6.13;;;6.90;99.90;;;;;;5012122;28;20033;-86
2024/02/12 00:34:29;;;;;;;6.32;5.53;;;6.90;99.90;;;;;;5011886;28;20054;-81
2024/02/12 00:36:56;;;;;;;7.32;6.50;;;6.80;99.90;;;;;;5072934;28;20126;-85
2024/02/12 00:39:23;;;;;;;7.43;6.32;;;6.90;99.90;;;;;;5010881;28;20446;-86
2024/02/12 00:41:52;;;;;;;8.45;6.70;;;6.80;99.90;;;;;;5079346;28;20438;-86
2024/02/12 00:44:19;;;;;;;7.97;6.22;;;6.80;99.90;;;;;;5010890;28;20061;-82
2024/02/12 00:46:46;;;;;;;7.68;6.18;;;6.80;99.90;;;;;;5011151;28;20084;-80
2024/02/12 00:49:13;;;;;;;9.75;6.00;;;6.80;99.90;;;;;;5078752;28;20022;-85
2024/02/12 00:51:40;;;;;;;8.40;6.32;;;6.80;99.90;;;;;;5079316;28;20017;-81
2024/02/12 00:54:06;;;;;;;7.63;6.05;;;6.80;99.90;;;;;;5077423;28;20022;-85
2024/02/12 00:56:33;;;;;;;6.05;5.45;;;6.70;99.90;;;;;;5010630;28;20391;-85
2024/02/12 00:59:00;;;;;;;7.97;6.30;;;6.70;99.90;;;;;;5078703;28;20022;-81
2024/02/12 01:01:25;;;;;;;9.02;6.78;;;6.70;99.90;;;;;;5078677;28;20022;-81
2024/02/12 01:03:51;;;;;;;8.20;6.22;;;6.70;99.90;;;;;;5010933;28;20018;-83
2024/02/12 01:06:17;;;;;;;7.53;6.30;;;6.70;99.90;;;;;;5010525;28;20018;-82
2024/02/12 01:08:43;;;;;;;8.13;6.10;;;6.70;99.90;;;;;;5010426;28;20058;-79
2024/02/12 01:11:09;;;;;;;6.15;5.28;;;6.60;99.90;;;;;;5010524;28;20113;-85
2024/02/12 01:13:34;;;;;;;6.82;5.82;;;6.60;99.90;;;;;;5010734;28;20030;-80
2024/02/12 01:16:00;;;;;;;7.88;6.20;;;6.60;99.90;;;;;;5010692;28;20018;-81
2024/02/12 01:18:26;;;;;;;8.93;6.90;;;6.60;99.90;;;;;;5095165;28;20052;-81
2024/02/12 01:20:52;;;;;;;9.52;6.93;;;6.60;99.90;;;;;;5010463;28;20101;-85
2024/02/12 01:23:18;;;;;;;10.75;8.02;;;6.60;99.90;;;;;;5076876;28;20464;-85
2024/02/12 01:25:44;;;;;;;9.27;7.20;;;6.60;99.90;;;;;;5079938;28;20156;-86
2024/02/12 01:28:10;;;;;;;10.57;7.93;;;6.50;99.90;;;;;;5094085;28;20460;-85
2024/02/12 01:30:36;;;;;;;12.80;7.82;;;6.50;99.90;;;;;;5010589;28;20041;-85
2024/02/12 01:33:03;;;;;;;10.23;8.20;;;6.50;99.90;;;;;;5010296;28;20022;-82
2024/02/12 01:35:29;;;;;;;9.40;7.18;;;6.50;99.90;;;;;;5010529;28;20463;-82
2024/02/12 01:37:55;;;;;;;11.13;8.43;;;6.50;99.90;;;;;;5009853;28;20052;-85
2024/02/12 01:40:20;;;;;;;9.15;7.05;;;6.50;99.90;;;;;;5010427;28;20083;-82
2024/02/12 01:42:50;;;;;;;9.27;6.90;;;6.50;99.90;;;;;;5010115;28;20030;-81
2024/02/12 01:45:23;;;;;;;9.60;7.22;;;6.50;99.90;;;;;;5010338;28;20029;-84
2024/02/12 01:47:57;;;;;;;8.30;6.75;;;6.50;99.90;;;;;;5077523;28;20028;-80
2024/02/12 01:50:24;;;;;;;8.70;6.63;;;6.50;99.90;;;;;;5010321;28;20033;-80
2024/02/12 01:52:50;;;;;;;8.15;6.45;;;6.50;99.90;;;;;;5008264;28;20014;-80
2024/02/12 01:55:16;;;;;;;7.47;6.05;;;6.40;99.90;;;;;;5077745;28;20030;-84
2024/02/12 01:57:46;;;;;;;7.10;5.68;;;6.40;99.90;;;;;;5009726;28;20026;-80
2024/02/12 02:00:14;;;;;;;8.45;5.93;;;6.50;99.90;;;;;;5077897;28;20018;-85
2024/02/12 02:02:43;;;;;;;7.45;5.75;;;6.40;99.90;;;;;;5008414;28;20026;-85
2024/02/12 02:05:10;;;;;;;6.90;5.90;;;6.40;99.90;;;;;;5078448;28;20060;-85
2024/02/12 02:07:36;;;;;;;7.10;6.32;;;6.40;99.90;;;;;;5077617;28;20045;-81
2024/02/12 02:10:04;;;;;;;7.45;6.43;;;6.40;99.90;;;;;;5077213;28;20034;-87
2024/02/12 02:12:32;;;;;;;6.45;5.63;;;6.40;99.90;;;;;;5076834;28;20113;-80
2024/02/12 02:14:58;;;;;;;10.48;5.85;;;6.40;99.90;;;;;;5077387;28;20495;-86
2024/02/12 02:17:24;;;;;;;8.68;6.35;;;6.40;99.90;;;;;;5077443;28;20028;-81
2024/02/12 02:19:50;;;;;;;7.47;6.22;;;6.40;99.90;;;;;;5077139;28;20058;-80
2024/02/12 02:22:16;;;;;;;7.18;6.40;;;6.40;99.90;;;;;;5071283;28;20116;-80
2024/02/12 02:24:42;;;;;;;8.00;6.13;;;6.40;99.90;;;;;;5013284;28;20022;-83
2024/02/12 02:27:10;;;;;;;8.20;6.60;;;6.40;99.90;;;;;;5013415;28;20018;-83
2024/02/12 02:29:39;;;;;;;8.88;6.85;;;6.40;99.90;;;;;;5098272;28;20036;-84
2024/02/12 02:32:05;;;;;;;7.82;6.38;;;6.40;99.90;;;;;;5082550;28;20046;-82
2024/02/12 02:34:30;;;;;;;8.82;6.80;;;6.40;99.90;;;;;;5080999;28;20025;-84
2024/02/12 02:36:56;;;;;;;6.97;5.47;;;6.30;99.90;;;;;;5098437;28;20014;-84
2024/02/12 02:39:22;;;;;;;8.40;6.45;;;6.30;99.90;;;;;;5098286;28;20053;-80
2024/02/12 02:41:48;;;;;;;7.93;5.85;;;6.40;99.90;;;;;;5098333;28;20360;-80
2024/02/12 02:44:14;;;;;;;6.85;5.78;;;6.40;99.90;;;;;;5013021;28;20029;-80
2024/02/12 02:46:41;;;;;;;8.68;6.03;;;6.30;99.90;;;;;;5011800;28;20074;-81
2024/02/12 02:49:07;;;;;;;7.82;5.85;;;6.40;99.90;;;;;;5012890;28;20175;-84
2024/02/12 02:51:35;;;;;;;8.40;6.10;;;6.30;99.90;;;;;;5012554;28;20041;-81
2024/02/12 02:54:01;;;;;;;8.15;5.85;;;6.30;99.90;;;;;;5013161;28;20018;-81
2024/02/12 02:56:26;;;;;;;8.82;7.20;;;6.30;99.90;;;;;;5012892;28;20155;-81
2024/02/12 02:58:52;;;;;;;11.45;7.70;;;6.30;99.90;;;;;;5012648;28;20030;-84
2024/02/12 03:01:20;;;;;;;10.55;6.80;;;6.30;99.90;;;;;;5011838;28;20030;-80
2024/02/12 03:03:51;;;;;;;6.55;5.88;;;6.30;99.90;;;;;;5097934;28;20054;-83
2024/02/12 03:06:18;;;;;;;8.60;5.82;;;6.30;99.90;;;;;;5080923;28;20560;-82
2024/02/12 03:08:45;;;;;;;7.88;5.50;;;6.20;99.90;;;;;;5080955;28;20029;-82
2024/02/12 03:11:22;;;;;;;7.53;5.80;;;6.20;99.90;;;;;;5012478;28;20109;-82
2024/02/12 03:13:50;;;;;;;7.63;4.75;;;6.30;99.90;;;;;;5080421;28;20487;-85
2024/02/12 03:16:16;;;;;;;6.20;5.15;;;6.20;99.90;;;;;;5012645;28;20033;-85
2024/02/12 03:18:45;;;;;;;8.77;4.50;;;6.30;99.90;;;;;;5011041;28;20020;-84
2024/02/12 03:21:11;;;;;;;5.85;4.45;;;6.30;99.90;;;;;;5003913;28;20422;-81
2024/02/12 03:23:37;;;;;;;5.43;4.65;;;6.30;99.90;;;;;;5011928;28;20054;-82
2024/02/12 03:26:06;;;;;;;6.05;4.75;;;6.30;99.90;;;;;;5012699;28;20076;-84
2024/02/12 03:28:35;;;;;;;4.68;4.15;;;6.30;99.90;;;;;;5012174;28;20010;-84
2024/02/12 03:31:04;;;;;;;5.18;4.20;;;6.30;99.90;;;;;;5012253;28;20034;-85
2024/02/12 03:33:31;;;;;;;5.18;4.50;;;6.30;99.90;;;;;;5079990;28;20014;-84
2024/02/12 03:35:57;;;;;;;5.25;4.47;;;6.30;99.90;;;;;;5007397;28;20030;-85
2024/02/12 03:38:24;;;;;;;7.18;4.40;;;6.30;99.90;;;;;;5006167;28;20057;-85
2024/02/12 03:40:50;;;;;;;5.38;4.75;;;6.30;99.90;;;;;;5080062;28;20018;-85
2024/02/12 03:43:17;;;;;;;6.70;4.38;;;6.20;99.90;;;;;;5012177;28;20022;-82
2024/02/12 03:45:45;;;;;;;5.72;4.38;;;6.30;99.90;;;;;;5010895;28;20022;-82
2024/02/12 04:01:59;;;;;;;8.32;5.55;;;6.30;99.90;;;;;;4992929;28;20080;-84
2024/02/12 04:04:25;;;;;;;7.90;6.03;;;6.30;99.90;;;;;;5087940;28;20422;-85
2024/02/12 04:06:51;;;;;;;6.53;5.18;;;6.30;99.90;;;;;;5079580;28;20071;-80
2024/02/12 04:09:17;;;;;;;6.13;4.93;;;6.30;99.90;;;;;;5011927;28;20025;-84
2024/02/12 04:11:43;;;;;;;6.47;5.78;;;6.30;99.90;;;;;;5010771;28;20041;-81
2024/02/12 04:14:09;;;;;;;7.65;5.78;;;6.30;99.90;;;;;;5005812;28;20026;-85
2024/02/12 04:16:39;;;;;;;7.75;5.70;;;6.30;99.90;;;;;;5072269;28;20067;-85
2024/02/12 04:19:10;;;;;;;6.82;5.00;;;6.30;99.90;;;;;;5079087;28;20022;-82
2024/02/12 04:21:37;;;;;;;8.10;5.85;;;6.30;99.90;;;;;;5011389;28;20034;-86
2024/02/12 04:24:04;;;;;;;7.43;5.70;;;6.30;99.90;;;;;;5011638;28;20014;-82
2024/02/12 04:26:30;;;;;;;8.23;5.30;;;6.30;99.90;;;;;;5011176;28;20022;-86
2024/02/12 04:28:58;;;;;;;7.43;6.00;;;6.30;99.90;;;;;;5011608;28;20050;-86
2024/02/12 04:31:26;;;;;;;10.98;6.05;;;6.30;99.90;;;;;;5011316;28;20030;-81
2024/02/12 04:33:53;;;;;;;8.50;6.18;;;6.30;99.90;;;;;;5080335;28;20413;-82
2024/02/12 04:36:19;;;;;;;9.30;5.95;;;6.30;99.90;;;;;;5094767;28;20029;-82
2024/02/12 04:38:45;;;;;;;11.70;7.47;;;6.30;99.90;;;;;;5011303;28;20118;-81
2024/02/12 04:41:12;;;;;;;10.70;6.82;;;6.20;99.90;;;;;;5011138;28;20025;-81
2024/02/12 04:43:38;;;;;;;9.38;7.32;;;6.20;99.90;;;;;;5010831;28;20026;-85
2024/02/12 04:46:04;;;;;;;11.98;7.03;;;6.20;99.90;;;;;;5009322;28;20496;-80
2024/02/12 04:48:31;;;;;;;8.68;6.90;;;6.20;99.90;;;;;;5003380;28;20155;-83
2024/02/12 04:50:56;;;;;;;10.02;6.65;;;6.20;99.90;;;;;;5078455;28;20065;-81
2024/02/12 04:53:23;;;;;;;9.32;6.47;;;6.20;99.90;;;;;;5004412;28;20115;-81
2024/02/12 04:55:49;;;;;;;15.77;6.88;;;6.20;99.90;;;;;;4991488;28;20018;-81
2024/02/12 04:58:14;;;;;;;9.77;6.78;;;6.20;99.90;;;;;;4999890;28;20052;-84
2024/02/12 05:00:40;;;;;;;8.30;6.07;;;6.20;99.90;;;;;;5011293;28;20033;-81
2024/02/12 05:03:07;;;;;;;9.45;6.95;;;6.20;99.90;;;;;;5011519;28;20410;-85
2024/02/12 05:05:34;;;;;;;9.32;6.72;;;6.20;99.90;;;;;;5078697;28;20034;-81
2024/02/12 05:08:03;;;;;;;7.72;6.53;;;6.20;99.90;;;;;;5010353;28;20022;-81
2024/02/12 05:10:30;;;;;;;8.23;5.93;;;6.20;99.90;;;;;;5010756;28;20079;-85
2024/02/12 05:12:56;;;;;;;9.70;5.68;;;6.20;99.90;;;;;;5011004;28;20026;-85
2024/02/12 05:15:23;;;;;;;9.57;5.97;;;6.10;99.90;;;;;;5010390;28;20017;-85
2024/02/12 05:17:55;;;;;;;8.30;6.00;;;6.20;99.90;;;;;;5009806;28;20356;-86
2024/02/12 05:23:09;;;;;;;8.23;5.85;;;6.20;99.90;;;;;;5011141;28;20049;-81
2024/02/12 05:25:36;;;;;;;6.93;5.55;;;6.10;99.90;;;;;;5078051;28;20461;-84
2024/02/12 05:28:03;;;;;;;8.38;5.78;;;6.10;99.90;;;;;;5008959;28;20026;-82
2024/02/12 05:30:31;;;;;;;7.68;5.82;;;6.20;99.90;;;;;;5078018;28;20076;-85
2024/02/12 05:32:58;;;;;;;6.32;5.25;;;6.10;99.90;;;;;;5010441;28;20026;-85
2024/02/12 05:35:24;;;;;;;8.60;5.28;;;6.10;99.90;;;;;;5010460;28;20030;-83
2024/02/12 05:37:49;;;;;;;6.90;5.18;;;6.10;99.90;;;;;;5010139;28;20052;-81
2024/02/12 05:40:15;;;;;;;8.57;5.72;;;6.10;99.90;;;;;;5010585;28;20475;-85
2024/02/12 05:42:41;;;;;;;6.45;4.85;;;6.10;99.90;;;;;;5094790;28;20474;-81
2024/02/12 05:45:08;;;;;;;7.60;5.18;;;6.10;99.90;;;;;;5009167;28;20022;-84
2024/02/12 05:47:34;;;;;;;7.95;5.28;;;6.10;99.90;;;;;;5003146;28;20413;-81
2024/02/12 05:50:00;;;;;;;9.18;5.63;;;6.10;99.90;;;;;;5077799;28;20026;-85
2024/02/12 05:52:25;;;;;;;7.03;4.90;;;6.10;99.90;;;;;;5077765;28;20022;-84
2024/02/12 05:54:51;;;;;;;7.63;5.20;;;6.10;99.90;;;;;;4997233;28;20046;-81
2024/02/12 05:57:17;;;;;;;7.88;5.10;;;6.10;99.90;;;;;;5010161;28;20109;-84
2024/02/12 05:59:43;;;;;;;6.85;5.32;;;6.10;99.90;;;;;;5081688;28;20475;-85
2024/02/12 06:02:08;;;;;;;6.07;4.53;;;6.10;99.90;;;;;;5077772;28;20026;-81
2024/02/12 06:04:34;;;;;;;6.53;4.97;;;6.10;99.90;;;;;;5088154;28;20391;-85
2024/02/12 06:07:00;;;;;;;6.97;4.70;;;6.10;99.90;;;;;;5003609;28;20458;-81
2024/02/12 06:09:27;;;;;;;6.95;4.70;;;6.10;99.90;;;;;;4997195;28;20101;-81
2024/02/12 06:11:53;;;;;;;5.90;4.70;;;6.10;99.90;;;;;;5077585;28;20055;-84
2024/02/12 06:14:20;;;;;;;6.63;4.65;;;6.00;99.90;;;;;;5003321;28;20030;-80
2024/02/12 06:16:46;;;;;;;4.35;3.95;;;6.10;99.90;;;;;;5003197;28;20022;-80
2024/02/12 06:19:12;;;;;;;5.68;4.50;;;6.00;99.90;;;;;;5065025;28;20022;-80
2024/02/12 06:21:37;;;;;;;5.75;5.05;;;6.10;99.90;;;;;;5077495;28;20033;-85
2024/02/12 06:24:04;;;;;;;5.80;4.55;;;6.00;99.90;;;;;;5077632;28;20112;-80
2024/02/12 06:26:30;;;;;;;7.00;4.47;;;6.10;99.90;;;;;;5077429;28;20018;-81
2024/02/12 06:28:56;;;;;;;6.97;5.10;;;6.10;99.90;;;;;;5077844;28;20014;-85
2024/02/12 06:31:21;;;;;;;9.75;6.28;;;6.10;99.90;;;;;;5077363;28;20041;-81
2024/02/12 06:33:47;;;;;;;8.07;5.38;;;6.10;99.90;;;;;;5009596;28;20512;-81
2024/02/12 06:36:13;;;;;;;7.70;4.75;;;6.10;99.90;;;;;;5077148;28;20053;-85
2024/02/12 06:38:39;;;;;;;6.47;5.78;;;6.10;99.90;;;;;;5075413;28;20132;-84
2024/02/12 06:41:05;;;;;;;7.65;5.70;;;6.10;99.90;;;;;;5003666;28;20458;-85
2024/02/12 06:43:31;;;;;;;8.88;5.82;;;6.10;99.90;;;;;;5009572;28;20030;-84
2024/02/12 06:45:57;;;;;;;7.70;5.75;;;6.20;99.90;;;;;;5008400;28;20109;-84
2024/02/12 06:48:23;;;;;;;6.45;4.93;;;6.20;99.90;;;;;;5002742;28;20038;-84
2024/02/12 06:50:49;;;;;;;8.52;4.95;;;6.20;99.90;;;;;;5076833;28;20128;-85
2024/02/12 06:53:15;;;;;;;6.70;4.53;;;6.20;99.90;;;;;;5094334;28;20061;-80
2024/02/12 06:55:40;;;;;;;5.90;4.30;;;6.20;99.90;;;;;;5093893;28;20113;-81
2024/02/12 06:58:09;;;;;;;6.75;5.00;;;6.30;99.90;;;;;;4997333;28;20110;-81
2024/02/12 07:00:37;;;;;;;7.10;5.30;;;6.30;99.90;;;;;;5077307;28;20034;-81
2024/02/12 07:03:03;;;;;;;8.25;4.97;;;6.30;99.90;;;;;;5089223;28;20053;-81
2024/02/12 07:05:29;;;;;;;6.78;4.75;;;6.30;99.90;;;;;;5009317;28;20480;-81
2024/02/12 07:07:56;;;;;;;7.03;5.40;;;6.40;99.90;;;;;;5008986;28;20169;-81
2024/02/12 07:10:23;;;;;;;8.13;5.43;;;6.40;99.90;;;;;;5012748;28;20034;-81
2024/02/12 07:12:49;;;;;;;5.45;4.88;;;6.40;99.90;;;;;;5067618;28;20018;-81
2024/02/12 07:15:15;;;;;;;7.47;5.60;;;6.40;99.90;;;;;;5081183;28;20106;-80
2024/02/12 07:17:40;;;;;;;10.80;5.15;;;6.40;99.90;;;;;;5009466;28;20025;-84
2024/02/12 07:20:10;;;;;;;8.30;5.85;;;6.40;99.90;;;;;;5081170;28;20026;-84
2024/02/12 07:22:36;;;;;;;6.68;5.30;;;6.40;99.90;;;;;;5092360;28;20490;-84
2024/02/12 07:25:03;;;;;;;7.32;5.80;;;6.40;99.90;;;;;;5010612;28;20506;-85
2024/02/12 07:27:29;;;;;;;7.15;5.15;;;6.40;99.90;;;;;;5008959;28;20029;-85
2024/02/12 07:29:55;;;;;;;8.50;5.88;;;6.40;99.90;;;;;;4998801;28;20035;-82
2024/02/12 07:32:21;;;;;;;7.97;5.32;;;6.40;99.90;;;;;;4992726;28;20034;-81
2024/02/12 07:34:47;;;;;;;8.57;5.63;;;6.50;99.90;;;;;;5074130;28;20109;-81
2024/02/12 07:37:13;;;;;;;9.80;5.60;;;6.50;99.90;;;;;;5076687;28;20040;-84
2024/02/12 07:39:39;;;;;;;6.75;5.97;;;6.50;99.90;;;;;;5006143;28;20026;-85
2024/02/12 07:42:09;;;;;;;7.93;6.28;;;6.50;99.90;;;;;;5074354;28;20022;-81
2024/02/12 07:44:36;;;;;;;8.50;5.22;;;6.50;99.90;;;;;;4994779;28;20060;-80
2024/02/12 07:47:03;;;;;;;9.70;6.03;;;6.50;99.90;;;;;;4991848;28;20022;-81
2024/02/12 07:49:31;;;;;;;7.85;5.68;;;6.60;99.90;;;;;;5005311;28;20105;-81
2024/02/12 07:51:58;;;;;;;11.52;6.35;;;6.60;99.90;;;;;;5076785;28;20022;-84
2024/02/12 07:54:23;;;;;;;7.97;5.90;;;6.60;99.90;;;;;;5068500;28;20030;-84
2024/02/12 07:56:50;;;;;;;11.25;6.35;;;6.70;99.90;;;;;;4993619;28;20064;-80
2024/02/12 07:59:15;;;;;;;10.35;6.72;;;6.70;99.90;;;;;;5000176;28;20029;-84
2024/02/12 08:01:41;;;;;;;9.70;6.43;;;6.70;99.90;;;;;;4998589;28;20030;-84
2024/02/12 08:04:06;;;;;;;10.60;6.47;;;6.80;99.90;;;;;;5072055;28;20014;-85
2024/02/12 08:06:32;;;;;;;9.40;6.68;;;6.80;99.90;;;;;;5001777;28;20035;-82
2024/02/12 08:08:58;;;;;;;12.05;6.35;;;6.80;99.90;;;;;;5003933;28;20386;-82
2024/02/12 08:11:23;;;;;;;9.82;6.60;;;6.80;99.90;;;;;;5006531;28;20037;-82
2024/02/12 08:13:50;;;;;;;12.18;6.22;;;6.90;99.90;;;;;;5004954;28;20046;-82
2024/02/12 08:16:16;;;;;;;8.20;6.05;;;7.00;99.90;;;;;;5004959;28;20033;-83
2024/02/12 08:18:42;;;;;;;9.30;6.53;;;7.00;99.90;;;;;;5073657;28;20037;-82
2024/02/12 08:21:08;;;;;;;11.10;6.60;;;7.00;99.90;;;;;;5078595;28;20063;-82
2024/02/12 08:23:34;;;;;;;14.15;8.13;;;7.00;99.90;;;;;;5078252;28;20462;-82
2024/02/12 08:26:00;;;;;;;10.02;6.80;;;7.10;99.90;;;;;;5003829;28;20014;-82
2024/02/12 08:28:26;;;;;;;9.27;7.05;;;7.10;99.90;;;;;;5078353;28;20032;-83
2024/02/12 08:30:51;;;;;;;12.68;6.72;;;7.10;99.90;;;;;;5070200;28;20053;-82
2024/02/12 08:33:17;;;;;;;9.50;6.60;;;7.20;99.90;;;;;;5003591;28;20030;-82
2024/02/12 08:35:43;;;;;;;9.88;7.00;;;7.20;99.90;;;;;;5002899;28;20025;-83
2024/02/12 08:38:09;;;;;;;10.82;6.63;;;7.20;99.90;;;;;;5075460;28;20068;-83
2024/02/12 08:40:38;;;;;;;10.02;6.28;;;7.20;99.90;;;;;;4997812;28;20081;-82
2024/02/12 08:43:04;;;;;;;9.13;7.15;;;7.30;99.90;;;;;;5002676;28;20025;-84
2024/02/12 08:45:30;;;;;;;10.63;7.47;;;7.40;99.90;;;;;;5063904;28;20050;-83
2024/02/12 08:47:55;;;;;;;15.07;8.30;;;7.40;99.90;;;;;;5003371;28;20034;-83
2024/02/12 08:50:23;;;;;;;9.30;6.93;;;7.50;99.90;;;;;;5059531;28;20046;-83
2024/02/12 08:52:49;;;;;;;14.50;8.25;;;7.50;99.90;;;;;;5074192;28;20030;-84
2024/02/12 08:55:16;;;;;;;12.82;7.60;;;7.50;99.90;;;;;;5077906;28;20033;-84
2024/02/12 08:57:42;;;;;;;11.85;7.43;;;7.60;99.90;;;;;;5008105;28;20018;-84
2024/02/12 09:00:13;;;;;;;13.98;9.18;;;7.60;99.90;;;;;;5076589;28;20022;-84
2024/02/12 09:02:39;;;;;;;14.00;8.50;;;7.70;99.90;;;;;;5004348;28;20030;-84
2024/02/12 09:05:10;;;;;;;14.30;9.25;;;7.70;99.90;;;;;;5074497;28;20291;-85
2024/02/12 09:07:40;;;;;;;15.50;8.52;;;7.70;99.90;;;;;;5075437;28;20363;-85
2024/02/12 09:10:07;;;;;;;13.27;9.75;;;7.70;99.90;;;;;;5009313;28;20046;-81
2024/02/12 09:12:37;;;;;;;17.27;10.95;;;7.80;99.90;;;;;;5074371;28;20030;-81
2024/02/12 09:15:05;;;;;;;16.48;9.48;;;7.80;99.90;;;;;;4993013;28;20495;-80
2024/02/12 09:17:31;;;;;;;13.07;8.32;;;7.80;99.90;;;;;;5062816;28;20023;-84
2024/02/12 09:19:57;;;;;;;14.80;10.23;;;7.90;99.90;;;;;;5071874;28;20095;-84
2024/02/12 09:22:23;;;;;;;15.02;9.45;;;7.90;99.90;;;;;;5089817;28;20034;-84
2024/02/12 09:24:48;;;;;;;16.50;9.88;;;8.00;99.90;;;;;;5070050;28;20034;-84
2024/02/12 09:27:14;;;;;;;19.45;9.73;;;8.10;99.90;;;;;;5060028;28;20411;-83
2024/02/12 09:29:40;;;;;;;15.32;9.93;;;8.10;99.90;;;;;;5059352;28;20022;-84
2024/02/12 09:32:05;;;;;;;16.88;10.32;;;8.20;99.90;;;;;;5067270;28;20427;-84
2024/02/12 09:34:32;;;;;;;15.25;8.95;;;8.20;99.90;;;;;;5004301;28;20090;-82
2024/02/12 09:36:58;;;;;;;16.40;10.63;;;8.30;99.90;;;;;;5075184;28;20042;-83
2024/02/12 09:39:24;;;;;;;11.57;7.28;;;8.40;99.90;;;;;;4995797;28;20866;-84
2024/02/12 09:41:50;;;;;;;11.65;7.65;;;8.40;99.90;;;;;;4993733;28;20019;-83
2024/02/12 09:44:21;;;;;;;11.10;6.93;;;8.50;99.90;;;;;;5001605;28;20375;-83
2024/02/12 09:46:48;;;;;;;10.80;6.25;;;8.50;99.90;;;;;;5060632;28;20022;-84
2024/02/12 09:49:16;;;;;;;10.13;6.80;;;8.50;99.90;;;;;;5074103;28;20431;-84
2024/02/12 09:51:44;;;;;;;9.95;5.72;;;8.60;99.90;;;;;;4999207;28;20061;-84
2024/02/12 09:54:10;;;;;;;11.35;6.07;;;8.70;99.90;;;;;;5064703;28;20014;-83
2024/02/12 09:56:38;;;;;;;10.05;6.07;;;8.70;99.90;;;;;;5072261;28;20034;-83
2024/02/12 09:59:03;;;;;;;10.85;5.70;;;8.70;99.90;;;;;;5002963;28;20030;-83
2024/02/12 10:01:30;;;;;;;9.55;5.65;;;8.80;99.90;;;;;;5077261;28;20028;-84
2024/02/12 10:03:57;;;;;;;8.38;5.68;;;8.80;99.90;;;;;;5075368;28;20029;-83
2024/02/12 10:06:22;;;;;;;12.00;5.80;;;8.80;99.90;;;;;;4999899;28;20029;-83
2024/02/12 10:08:49;;;;;;;9.60;5.75;;;8.90;99.90;;;;;;5068819;28;20430;-83
2024/02/12 10:11:20;;;;;;;12.20;8.73;;;8.90;99.90;;;;;;5007737;28;20029;-84
2024/02/12 10:13:50;;;;;;;8.63;5.72;;;9.00;99.90;;;;;;5063843;28;20480;-84
2024/02/12 10:16:16;;;;;;;6.47;4.97;;;9.00;99.90;;;;;;5003629;28;20087;-84
2024/02/12 10:18:43;;;;;;;12.20;5.85;;;9.10;99.90;;;;;;5071317;28;20038;-83
2024/02/12 10:21:10;;;;;;;10.30;5.10;;;9.10;99.90;;;;;;5002877;28;20022;-83
2024/02/12 10:23:36;;;;;;;9.02;5.22;;;9.00;99.90;;;;;;5075031;28;20121;-84
2024/02/12 10:26:02;;;;;;;5.60;4.20;;;9.10;99.90;;;;;;5089288;28;20523;-84
2024/02/12 10:28:28;;;;;;;7.63;4.97;;;9.10;99.90;;;;;;5074638;28;20031;-84
2024/02/12 10:30:54;;;;;;;9.20;4.78;;;9.10;99.90;;;;;;5072760;28;20029;-84
2024/02/12 10:33:23;;;;;;;7.07;5.10;;;9.10;99.90;;;;;;5064124;28;20129;-85
2024/02/12 10:35:50;;;;;;;6.85;4.47;;;9.00;99.90;;;;;;5072719;28;20421;-84
2024/02/12 10:38:16;;;;;;;7.93;4.82;;;9.10;99.90;;;;;;5003444;28;20042;-84
2024/02/12 10:41:06;;;;;;;4.72;4.10;;;9.10;99.90;;;;;;5080757;28;20034;-82
2024/02/12 10:43:34;;;;;;;6.75;5.47;;;9.10;99.90;;;;;;5062754;28;20039;-84
2024/02/12 10:46:03;;;;;;;6.13;4.53;;;9.10;99.90;;;;;;5000952;28;20484;-82
2024/02/12 10:48:32;;;;;;;11.32;7.25;;;9.10;99.90;;;;;;5011550;28;20038;-79
2024/02/12 10:50:59;;;;;;;10.00;5.35;;;9.00;99.90;;;;;;5005531;28;20042;-78
2024/02/12 10:53:27;;;;;;;7.13;5.03;;;9.10;99.90;;;;;;5002185;28;20035;-83
2024/02/12 10:55:54;;;;;;;8.35;5.30;;;9.20;99.90;;;;;;4996736;28;20484;-83
2024/02/12 10:58:21;;;;;;;9.98;5.63;;;9.20;99.90;;;;;;5079920;28;20081;-79
2024/02/12 11:00:56;;;;;;;7.07;5.35;;;9.30;99.90;;;;;;5009835;28;20464;-79
2024/02/12 11:03:36;;;;;;;17.52;7.72;;;9.40;99.90;;;;;;5087231;28;20037;-80
2024/02/12 11:06:10;;;;;;;8.45;5.30;;;9.40;99.90;;;;;;5079631;28;20022;-79
2024/02/12 11:08:39;;;;;;;12.02;6.43;;;9.30;99.90;;;;;;5080801;28;20141;-79
2024/02/12 11:11:22;;;;;;;6.63;4.93;;;9.40;99.90;;;;;;5094506;28;20121;-80
2024/02/12 11:13:52;;;;;;;7.80;5.18;;;9.40;99.90;;;;;;5082604;28;20041;-83
2024/02/12 11:16:20;;;;;;;7.30;5.18;;;9.50;99.90;;;;;;4998408;28;20125;-79
2024/02/12 11:18:59;;;;;;;11.20;6.68;;;9.40;99.90;;;;;;4997224;28;20054;-79
2024/02/12 11:21:29;;;;;;;10.43;6.18;;;9.50;99.90;;;;;;5069854;28;20041;-81
2024/02/12 11:24:07;;;;;;;9.60;7.00;;;9.40;99.90;;;;;;5005688;28;20022;-80
2024/02/12 11:26:39;;;;;;;10.57;6.15;;;9.30;99.90;;;;;;5072871;28;20049;-80
2024/02/12 11:29:05;;;;;;;9.77;6.57;;;9.30;99.90;;;;;;5001297;28;20018;-80
2024/02/12 11:31:35;;;;;;;13.35;7.65;;;9.20;99.90;;;;;;5073200;28;20072;-80
2024/02/12 11:34:01;;;;;;;18.98;9.50;;;9.20;99.90;;;;;;5007931;28;20029;-80
2024/02/12 11:36:28;;;;;;;13.52;9.00;;;9.20;99.90;;;;;;5069541;28;20091;-80
2024/02/12 11:38:53;;;;;;;75.32;32.33;;;9.10;99.90;;;;;;4992185;28;20050;-80
2024/02/12 11:41:19;;;;;;;19.50;10.02;;;9.10;99.90;;;;;;5063428;28;20039;-79
2024/02/12 11:43:46;;;;;;;12.43;8.25;;;9.20;99.90;;;;;;5071581;28;20026;-79
2024/02/12 11:46:15;;;;;;;10.48;7.47;;;9.20;99.90;;;;;;5076566;28;20033;-79
2024/02/12 11:48:42;;;;;;;11.80;7.53;;;9.10;99.90;;;;;;5078178;28;20026;-79
2024/02/12 11:51:09;;;;;;;11.30;6.63;;;9.20;99.90;;;;;;5077114;28;20475;-79
2024/02/12 11:53:40;;;;;;;12.57;6.72;;;9.10;99.90;;;;;;5068461;28;20018;-79
2024/02/12 11:56:11;;;;;;;10.38;6.60;;;9.00;99.90;;;;;;5064005;28;20412;-80
2024/02/12 11:58:37;;;;;;;11.60;7.38;;;9.00;99.90;;;;;;5066332;28;20026;-80
2024/02/12 12:01:05;;;;;;;13.60;7.32;;;9.10;99.90;;;;;;5078658;28;20105;-80
2024/02/12 12:03:32;;;;;;;9.63;6.97;;;9.10;99.90;;;;;;5063934;28;20345;-80
2024/02/12 12:05:58;;;;;;;15.70;7.18;;;9.00;99.90;;;;;;5075130;28;20497;-79
2024/02/12 12:08:27;;;;;;;15.10;9.55;;;9.00;99.90;;;;;;5004354;28;20031;-78
2024/02/12 12:10:53;;;;;;;13.85;8.27;;;9.00;99.90;;;;;;5064336;28;20488;-79
2024/02/12 12:13:23;;;;;;;10.50;6.68;;;9.00;99.90;;;;;;5073676;28;20068;-80
2024/02/12 12:15:50;;;;;;;12.25;7.43;;;9.10;99.90;;;;;;5070294;28;20034;-80
2024/02/12 12:18:15;;;;;;;12.48;7.18;;;9.10;99.90;;;;;;5005122;28;20506;-79
2024/02/12 12:20:41;;;;;;;9.70;6.80;;;9.10;99.90;;;;;;5064471;28;20015;-79
2024/02/12 12:23:09;;;;;;;11.32;6.45;;;9.20;99.90;;;;;;4995302;28;20411;-79
2024/02/12 12:25:38;;;;;;;10.85;6.70;;;9.20;99.90;;;;;;5063208;28;20138;-80
2024/02/12 12:28:08;;;;;;;15.90;8.45;;;9.20;99.90;;;;;;5076957;28;20034;-80
2024/02/12 12:30:34;;;;;;;15.77;8.40;;;9.20;99.90;;;;;;5003208;28;20038;-79
2024/02/12 12:33:00;;;;;;;13.70;9.10;;;9.20;99.90;;;;;;5008986;28;20029;-84
2024/02/12 12:35:25;;;;;;;14.40;7.20;;;9.30;99.90;;;;;;5082183;28;20068;-80
2024/02/12 12:37:52;;;;;;;9.32;6.78;;;9.30;99.90;;;;;;5073078;28;20090;-80
2024/02/12 12:40:25;;;;;;;13.65;6.72;;;9.40;99.90;;;;;;5086833;28;20022;-79
2024/02/12 12:42:53;;;;;;;8.93;6.13;;;9.40;99.90;;;;;;5005148;28;20026;-83
2024/02/12 12:45:21;;;;;;;11.30;7.05;;;9.40;99.90;;;;;;5084435;28;20017;-79
2024/02/12 12:47:48;;;;;;;11.63;7.55;;;9.40;99.90;;;;;;5010745;28;20025;-79
2024/02/12 12:50:14;;;;;;;13.18;6.43;;;9.30;99.90;;;;;;5078836;28;20064;-79
2024/02/12 12:52:41;;;;;;;12.38;7.30;;;9.30;99.90;;;;;;5010038;28;20463;-83
2024/02/12 12:55:08;;;;;;;12.52;6.95;;;9.30;99.90;;;;;;5078621;28;20017;-83
2024/02/12 12:57:35;;;;;;;14.15;8.30;;;9.30;99.90;;;;;;5074114;28;20130;-83
2024/02/12 13:00:04;;;;;;;13.43;7.43;;;9.40;99.90;;;;;;5066856;28;20022;-83
2024/02/12 13:02:32;;;;;;;10.65;7.55;;;9.40;99.90;;;;;;5065110;28;20107;-83
2024/02/12 13:05:00;;;;;;;15.38;7.65;;;9.40;99.90;;;;;;5078287;28;20026;-84
2024/02/12 13:07:26;;;;;;;14.90;8.60;;;9.30;99.90;;;;;;5004604;28;20029;-83
2024/02/12 13:09:51;;;;;;;14.35;7.75;;;9.30;99.90;;;;;;5003818;28;20018;-79
2024/02/12 13:12:17;;;;;;;15.60;8.73;;;9.30;99.90;;;;;;5076802;28;20053;-80